MET'MAP v2.0
soon released !

Expected late october,
this new version will be
more efficient, smarter,
and hosted on a brand new
server x3 powerfull...
...and still free !


Not compatible ?
Try the mobile version !

LOG IN : | Subscribe | Disclaimer | Who is Orbifly ? |
ICAO code :

TAF - LIMZ Cuneo Levaldigi Airport - 13 Dec 2019 09:18 UTC
Data Sources :     NOAA   


- Airport Elevation : 1267 ft
- IATA code : CUF
- No reported NOTAMs.


LIMZ - Cuneo Levaldigi Airport

Latest METAR recorded : 2015/08/11 07:50 LIMZ 110750Z 22006KT 9999 SCT080 23/17 Q1015
TAF TAF LIMZ
Valid from the 13 at 06:00 until the 14 at 06:00 UTC


130500Z 1306/1406 VRB05KT 1000 SN OVC010
BECMG 1312/1314 34008KT 7000 SCT030 SCT070

Source NOAA


MET'MAP, your aeronautical weather chart ! - Copyright ORBIFLY December 2007

Programming & Development : Alexandra Zaïnal
Co-Developer : Marc-Olivier Méhu
Technical & hardware support : Manuel Goepfert
Concept & Financing : Baudouin d'Aumeries